Time;durP1;ratioP1;P1;durP2;ratioP2;P2;SDS_P1;SDS_P2;PMS_P1;PMS_P2;Temp;Humidity;BMP_temperature;BMP_pressure;BME280_temperature;BME280_humidity;BME280_pressure;Samples;Min_cycle;Max_cycle;Signal;HPM_P1;HPM_P2
2021/12/18 00:00:33;;;;;;;24.03;16.07;;;9.50;99.90;;;;;;5018571;28;20198;-79
2021/12/18 00:03:00;;;;;;;21.70;15.03;;;9.50;99.90;;;;;;5031008;28;20595;-79
2021/12/18 00:05:29;;;;;;;21.90;15.27;;;9.50;99.90;;;;;;5025271;28;20207;-79
2021/12/18 00:07:57;;;;;;;21.53;15.13;;;9.60;99.90;;;;;;5048396;28;20208;-79
2021/12/18 00:10:24;;;;;;;21.67;15.47;;;9.60;99.90;;;;;;5041223;28;20235;-79
2021/12/18 00:12:54;;;;;;;28.00;16.33;;;9.50;99.90;;;;;;5033849;28;20237;-79
2021/12/18 00:15:22;;;;;;;22.63;15.50;;;9.60;99.90;;;;;;5034574;28;20210;-79
2021/12/18 00:17:50;;;;;;;23.07;14.67;;;9.60;99.90;;;;;;5036410;28;20187;-79
2021/12/18 00:20:18;;;;;;;19.63;14.60;;;9.70;99.90;;;;;;5035485;28;20679;-79
2021/12/18 00:22:46;;;;;;;21.90;14.70;;;9.70;99.90;;;;;;5035125;28;20223;-79
2021/12/18 00:25:14;;;;;;;22.40;15.57;;;9.70;99.90;;;;;;5048476;28;20187;-79
2021/12/18 00:27:41;;;;;;;21.70;15.30;;;9.70;99.90;;;;;;5034706;28;20199;-79
2021/12/18 00:30:11;;;;;;;21.03;14.97;;;9.70;99.90;;;;;;5027079;28;20218;-79
2021/12/18 00:32:42;;;;;;;19.40;14.63;;;9.70;99.90;;;;;;5019547;28;20233;-79
2021/12/18 00:35:10;;;;;;;21.77;15.53;;;9.70;99.90;;;;;;5027098;28;20207;-79
2021/12/18 00:37:37;;;;;;;21.40;14.77;;;9.70;99.90;;;;;;5032135;28;20211;-79
2021/12/18 00:40:10;;;;;;;19.57;13.43;;;9.70;99.90;;;;;;5032689;28;20192;-79
2021/12/18 00:42:42;;;;;;;18.47;13.10;;;9.80;99.90;;;;;;5033714;28;20216;-79
2021/12/18 00:45:14;;;;;;;18.80;13.30;;;9.90;99.90;;;;;;5033171;28;20195;-79
2021/12/18 00:47:43;;;;;;;17.30;12.63;;;9.70;99.90;;;;;;5034521;28;20199;-79
2021/12/18 00:50:15;;;;;;;16.93;12.50;;;9.60;99.90;;;;;;5031581;28;20234;-79
2021/12/18 00:52:43;;;;;;;18.17;11.77;;;9.30;99.90;;;;;;5041927;28;20231;-79
2021/12/18 00:55:11;;;;;;;17.03;11.50;;;9.20;99.90;;;;;;5026252;28;20192;-79
2021/12/18 00:57:38;;;;;;;16.33;11.70;;;9.30;99.90;;;;;;5023742;28;20206;-79
2021/12/18 01:00:09;;;;;;;15.07;10.90;;;9.30;99.90;;;;;;5034818;28;20191;-79
2021/12/18 01:02:42;;;;;;;14.93;11.30;;;9.30;99.90;;;;;;5039988;28;20216;-79
2021/12/18 01:05:11;;;;;;;16.20;10.20;;;9.40;99.90;;;;;;5015642;28;20209;-79
2021/12/18 01:07:39;;;;;;;15.37;10.97;;;9.50;99.90;;;;;;5025401;28;20211;-79
2021/12/18 01:10:21;;;;;;;15.40;10.60;;;9.60;99.90;;;;;;5023521;28;20222;-79
2021/12/18 01:12:52;;;;;;;14.87;9.93;;;9.60;99.90;;;;;;5024534;28;20215;-79
2021/12/18 01:15:25;;;;;;;14.07;10.00;;;9.60;99.90;;;;;;5022968;28;20203;-79
2021/12/18 01:23:24;;;;;;;14.10;9.43;;;9.30;99.90;;;;;;5037878;28;20195;-79
2021/12/18 01:25:53;;;;;;;14.10;10.23;;;9.30;99.90;;;;;;5018550;28;20203;-78
2021/12/18 01:28:30;;;;;;;14.70;9.90;;;9.20;99.90;;;;;;5024519;28;20211;-78
2021/12/18 01:30:57;;;;;;;17.33;10.90;;;9.20;99.90;;;;;;5023498;28;20222;-78
2021/12/18 01:33:27;;;;;;;16.77;10.53;;;9.20;99.90;;;;;;5017078;28;20207;-78
2021/12/18 01:35:54;;;;;;;19.10;11.87;;;9.00;99.90;;;;;;5023339;28;20282;-78
2021/12/18 01:38:23;;;;;;;16.53;10.37;;;9.00;99.90;;;;;;5034850;28;20207;-78
2021/12/18 01:41:04;;;;;;;15.37;11.17;;;9.00;99.90;;;;;;5039850;28;20203;-78
2021/12/18 01:44:22;;;;;;;15.20;10.90;;;9.10;99.90;;;;;;5027876;28;20653;-78
2021/12/18 01:46:45;;;;;;;16.17;10.13;;;9.10;99.90;;;;;;5041995;28;20206;-78
2021/12/18 01:52:17;;;;;;;15.37;10.10;;;9.10;99.90;;;;;;5021559;28;20227;-78
2021/12/18 01:54:46;;;;;;;14.67;10.17;;;9.00;99.90;;;;;;5030112;28;20198;-78
2021/12/18 01:57:14;;;;;;;16.87;10.77;;;9.00;99.90;;;;;;5023504;28;20191;-79
2021/12/18 01:59:52;;;;;;;15.07;11.00;;;9.00;99.90;;;;;;5017459;28;20199;-78
2021/12/18 02:02:20;;;;;;;18.73;11.83;;;8.90;99.90;;;;;;5018595;28;20223;-78
2021/12/18 02:04:49;;;;;;;16.93;11.63;;;8.80;99.90;;;;;;5030766;28;20716;-78
2021/12/18 02:07:17;;;;;;;17.10;11.30;;;8.60;99.90;;;;;;5026543;28;20545;-78
2021/12/18 02:10:08;;;;;;;15.70;10.87;;;8.60;99.90;;;;;;5028761;28;20214;-78
2021/12/18 02:12:44;;;;;;;15.67;11.10;;;8.70;99.90;;;;;;5022366;28;20231;-78
2021/12/18 02:20:50;;;;;;;15.57;10.07;;;8.80;99.90;;;;;;5024053;28;20198;-78
2021/12/18 02:23:18;;;;;;;13.23;9.30;;;8.70;99.90;;;;;;5023688;28;20191;-78
2021/12/18 02:25:47;;;;;;;15.30;9.57;;;8.80;99.90;;;;;;5039670;28;20222;-78
2021/12/18 02:28:19;;;;;;;13.23;9.20;;;8.80;99.90;;;;;;5030134;28;20568;-78
2021/12/18 02:30:49;;;;;;;13.93;9.40;;;8.80;99.90;;;;;;5040553;28;20218;-78
2021/12/18 02:33:17;;;;;;;15.10;9.37;;;8.90;99.90;;;;;;5021736;28;20200;-78
2021/12/18 02:35:48;;;;;;;16.40;11.30;;;8.60;99.90;;;;;;5035347;28;20582;-78
2021/12/18 02:38:20;;;;;;;15.03;10.10;;;8.50;99.90;;;;;;5025659;28;20192;-78
2021/12/18 02:41:07;;;;;;;14.60;9.77;;;8.60;99.90;;;;;;5024281;28;20199;-78
2021/12/18 02:43:37;;;;;;;15.47;10.00;;;8.80;99.90;;;;;;5012634;28;20215;-78
2021/12/18 02:46:07;;;;;;;18.53;10.70;;;8.80;99.90;;;;;;5020730;28;20199;-78
2021/12/18 02:48:37;;;;;;;15.40;10.43;;;9.00;99.90;;;;;;5025782;28;20195;-78
2021/12/18 02:51:05;;;;;;;14.90;9.87;;;8.90;99.90;;;;;;5028556;28;20212;-78
2021/12/18 02:53:38;;;;;;;17.17;10.80;;;8.90;99.90;;;;;;5046885;28;20218;-78
2021/12/18 02:56:09;;;;;;;14.23;9.30;;;9.00;99.90;;;;;;5027665;28;20191;-78
2021/12/18 02:58:37;;;;;;;15.60;10.33;;;8.90;99.90;;;;;;5021977;28;20554;-78
2021/12/18 03:01:06;;;;;;;14.90;9.27;;;8.80;99.90;;;;;;5018393;28;20219;-78
2021/12/18 03:04:15;;;;;;;14.17;10.00;;;8.70;99.90;;;;;;5028279;28;20210;-78
2021/12/18 03:06:45;;;;;;;13.80;9.67;;;8.90;99.90;;;;;;5020054;28;20203;-78
2021/12/18 03:09:45;;;;;;;13.50;9.13;;;8.90;99.90;;;;;;5026070;28;20676;-78
2021/12/18 03:25:57;;;;;;;14.53;9.47;;;8.90;99.90;;;;;;5027417;28;20191;-78
2021/12/18 03:28:25;;;;;;;16.13;10.70;;;9.10;99.90;;;;;;5024496;28;20195;-78
2021/12/18 03:30:55;;;;;;;13.17;9.63;;;9.00;99.90;;;;;;5021635;28;20199;-78
2021/12/18 03:33:22;;;;;;;14.40;9.60;;;9.10;99.90;;;;;;5020807;28;20207;-78
2021/12/18 03:35:50;;;;;;;16.40;9.67;;;9.10;99.90;;;;;;5023146;28;20210;-78
2021/12/18 03:38:17;;;;;;;13.10;9.37;;;9.10;99.90;;;;;;5024090;28;20203;-78
2021/12/18 03:40:45;;;;;;;14.50;9.57;;;9.00;99.90;;;;;;5027844;28;20560;-78
2021/12/18 03:43:15;;;;;;;15.40;9.63;;;9.00;99.90;;;;;;5021578;28;20207;-78
2021/12/18 03:45:42;;;;;;;13.60;9.87;;;8.80;99.90;;;;;;5024678;28;20202;-78
2021/12/18 03:48:09;;;;;;;16.00;10.07;;;8.70;99.90;;;;;;5026965;28;20294;-78
2021/12/18 03:50:37;;;;;;;14.50;10.00;;;8.60;99.90;;;;;;5028277;28;20202;-78
2021/12/18 03:53:04;;;;;;;13.47;9.30;;;8.60;99.90;;;;;;5025867;28;20207;-78
2021/12/18 03:55:32;;;;;;;15.73;10.93;;;8.60;99.90;;;;;;5021501;28;20207;-78
2021/12/18 03:57:59;;;;;;;15.83;10.10;;;8.60;99.90;;;;;;5029276;28;20203;-78
2021/12/18 04:00:28;;;;;;;15.47;10.03;;;8.60;99.90;;;;;;5025965;28;20246;-78
2021/12/18 04:02:55;;;;;;;15.17;10.50;;;8.70;99.90;;;;;;5024010;28;20214;-78
2021/12/18 04:05:22;;;;;;;16.17;10.40;;;8.70;99.90;;;;;;5019335;28;20200;-78
2021/12/18 04:07:50;;;;;;;17.43;10.50;;;8.80;99.90;;;;;;5042652;28;20206;-78
2021/12/18 04:10:19;;;;;;;14.13;10.00;;;8.80;99.90;;;;;;5028114;28;20203;-78
2021/12/18 04:12:49;;;;;;;17.13;10.43;;;8.90;99.90;;;;;;5017116;28;20223;-78
2021/12/18 04:15:16;;;;;;;15.73;10.47;;;8.90;99.90;;;;;;5020742;28;20218;-78
2021/12/18 04:17:45;;;;;;;16.27;10.47;;;8.90;99.90;;;;;;5018820;28;20203;-78
2021/12/18 04:20:13;;;;;;;15.67;10.03;;;8.90;99.90;;;;;;5032470;28;20196;-78
2021/12/18 04:22:41;;;;;;;16.60;10.23;;;8.80;99.90;;;;;;5034332;28;20238;-78
2021/12/18 04:25:08;;;;;;;16.73;10.23;;;8.80;99.90;;;;;;5035067;28;20191;-78
2021/12/18 04:27:36;;;;;;;17.13;10.60;;;8.80;99.90;;;;;;5046314;28;20202;-78
2021/12/18 04:30:04;;;;;;;17.97;11.47;;;8.70;99.90;;;;;;5014988;28;20208;-78
2021/12/18 04:32:32;;;;;;;18.13;11.13;;;8.80;99.90;;;;;;5033812;28;20233;-78
2021/12/18 04:35:01;;;;;;;16.03;10.10;;;8.90;99.90;;;;;;5034446;28;20207;-78
2021/12/18 04:37:28;;;;;;;16.73;10.43;;;8.80;99.90;;;;;;5034252;28;20202;-78
2021/12/18 04:39:55;;;;;;;18.77;10.80;;;8.80;99.90;;;;;;5030989;28;20203;-78
2021/12/18 04:42:23;;;;;;;17.80;11.23;;;8.80;99.90;;;;;;5018552;28;20222;-78
2021/12/18 04:44:51;;;;;;;17.73;11.13;;;8.80;99.90;;;;;;5025503;28;20202;-78
2021/12/18 04:47:19;;;;;;;17.13;10.70;;;8.80;99.90;;;;;;5026052;28;20218;-78
2021/12/18 04:49:46;;;;;;;16.03;10.07;;;8.70;99.90;;;;;;5032977;28;20200;-78
2021/12/18 04:52:15;;;;;;;17.20;10.33;;;8.80;99.90;;;;;;5021928;28;20696;-78
2021/12/18 04:54:44;;;;;;;15.77;10.43;;;8.80;99.90;;;;;;5028711;28;20913;-78
2021/12/18 04:57:12;;;;;;;14.87;9.80;;;8.90;99.90;;;;;;5034452;28;20206;-78
2021/12/18 04:59:43;;;;;;;16.57;11.27;;;8.80;99.90;;;;;;5024937;28;20203;-78
2021/12/18 05:02:14;;;;;;;16.50;10.20;;;8.90;99.90;;;;;;5021682;28;20218;-78
2021/12/18 05:04:42;;;;;;;17.23;10.30;;;8.90;99.90;;;;;;5034350;28;20194;-78
2021/12/18 05:07:10;;;;;;;19.23;11.30;;;8.90;99.90;;;;;;5028512;28;20199;-78
2021/12/18 05:09:48;;;;;;;19.77;11.37;;;8.70;99.90;;;;;;5015591;28;20183;-78
2021/12/18 05:12:16;;;;;;;19.60;11.17;;;8.60;99.90;;;;;;5017874;28;20230;-78
2021/12/18 05:14:43;;;;;;;18.93;11.70;;;8.60;99.90;;;;;;5032200;28;20195;-78
2021/12/18 05:17:10;;;;;;;20.30;11.73;;;8.60;99.90;;;;;;5034703;28;20199;-78
2021/12/18 05:19:38;;;;;;;20.50;11.80;;;8.60;99.90;;;;;;5036079;28;20282;-78
2021/12/18 05:22:06;;;;;;;19.33;11.03;;;8.70;99.90;;;;;;5033659;28;20218;-78
2021/12/18 05:24:33;;;;;;;18.27;10.77;;;8.80;99.90;;;;;;5015253;28;20210;-78
2021/12/18 05:27:02;;;;;;;20.27;10.97;;;8.80;99.90;;;;;;5026484;28;20215;-78
2021/12/18 05:29:30;;;;;;;19.33;11.70;;;8.90;99.90;;;;;;5031738;28;20191;-78
2021/12/18 05:31:57;;;;;;;17.83;10.23;;;8.90;99.90;;;;;;5033676;28;20229;-78
2021/12/18 05:34:26;;;;;;;18.37;10.63;;;8.80;99.90;;;;;;5026663;28;20207;-78
2021/12/18 05:39:48;;;;;;;20.60;11.27;;;8.60;99.90;;;;;;5014091;28;20685;-78
2021/12/18 05:42:18;;;;;;;19.23;11.40;;;8.80;99.90;;;;;;5033518;28;20218;-77
2021/12/18 05:44:46;;;;;;;22.90;11.97;;;8.90;99.90;;;;;;5033752;28;20187;-78
2021/12/18 05:47:14;;;;;;;21.73;12.53;;;8.80;99.90;;;;;;5033147;28;20211;-78
2021/12/18 05:49:41;;;;;;;22.03;12.27;;;8.50;99.90;;;;;;5035087;28;20202;-78
2021/12/18 05:52:09;;;;;;;19.77;11.30;;;8.70;99.90;;;;;;5039558;28;20226;-78
2021/12/18 05:54:37;;;;;;;22.40;14.10;;;8.80;99.90;;;;;;5037972;28;20192;-78
2021/12/18 05:57:05;;;;;;;21.10;12.57;;;8.90;99.90;;;;;;5021868;28;20198;-78
2021/12/18 05:59:34;;;;;;;21.23;12.47;;;8.90;99.90;;;;;;5032873;28;20538;-78
2021/12/18 06:02:02;;;;;;;22.43;12.53;;;8.90;99.90;;;;;;5032050;28;20237;-78
2021/12/18 06:04:29;;;;;;;25.27;12.63;;;8.70;99.90;;;;;;5030519;28;20569;-79
2021/12/18 06:07:03;;;;;;;22.87;12.70;;;8.80;99.90;;;;;;5035565;28;20195;-78
2021/12/18 06:09:31;;;;;;;21.47;12.30;;;8.70;99.90;;;;;;5033979;28;20195;-77
2021/12/18 06:12:01;;;;;;;23.13;13.17;;;8.60;99.90;;;;;;5019288;28;20211;-76
2021/12/18 06:14:28;;;;;;;22.43;12.50;;;8.60;99.90;;;;;;5024940;28;20215;-77
2021/12/18 06:16:57;;;;;;;18.63;11.23;;;8.60;99.90;;;;;;5028323;28;20195;-77
2021/12/18 06:19:24;;;;;;;23.57;13.43;;;9.00;99.90;;;;;;5033327;28;20198;-77
2021/12/18 06:21:52;;;;;;;19.87;11.30;;;9.40;99.90;;;;;;5020833;28;20239;-77
2021/12/18 06:24:19;;;;;;;21.47;11.30;;;9.50;99.90;;;;;;5018562;28;20204;-75
2021/12/18 06:26:47;;;;;;;23.50;13.27;;;10.00;99.90;;;;;;5023066;28;20212;-77
2021/12/18 06:29:14;;;;;;;24.03;13.00;;;9.60;99.90;;;;;;5032972;28;20685;-77
2021/12/18 06:31:41;;;;;;;24.10;12.80;;;9.30;99.90;;;;;;5030588;28;20688;-77
2021/12/18 06:34:12;;;;;;;24.13;13.67;;;9.00;99.90;;;;;;5028947;28;20541;-76
2021/12/18 06:36:40;;;;;;;24.80;13.60;;;8.80;99.90;;;;;;5023391;28;20747;-74
2021/12/18 06:39:07;;;;;;;25.00;14.07;;;8.70;99.90;;;;;;5028892;28;20203;-77
2021/12/18 06:41:35;;;;;;;26.00;14.10;;;8.60;99.90;;;;;;5021900;28;20223;-77
2021/12/18 06:44:02;;;;;;;24.67;13.83;;;8.60;99.90;;;;;;5024955;28;20696;-77
2021/12/18 06:46:46;;;;;;;27.97;14.73;;;8.70;99.90;;;;;;5022264;28;20202;-77
2021/12/18 06:49:15;;;;;;;25.97;13.77;;;8.80;99.90;;;;;;5015887;28;20206;-77
2021/12/18 06:51:42;;;;;;;20.60;12.70;;;8.90;99.90;;;;;;5025038;28;20219;-77
2021/12/18 06:54:10;;;;;;;23.10;12.43;;;8.90;99.90;;;;;;5022962;28;20222;-77
2021/12/18 06:56:37;;;;;;;21.93;12.13;;;8.90;99.90;;;;;;5015703;28;20199;-77
2021/12/18 06:59:05;;;;;;;21.27;12.70;;;8.80;99.90;;;;;;5020709;28;20203;-78
2021/12/18 07:01:32;;;;;;;24.30;14.40;;;8.90;99.90;;;;;;5028257;28;20234;-77
2021/12/18 07:03:59;;;;;;;28.07;14.70;;;8.90;99.90;;;;;;5015963;28;20191;-77
2021/12/18 07:06:29;;;;;;;22.60;13.83;;;9.00;99.90;;;;;;5021853;28;20564;-77
2021/12/18 07:08:56;;;;;;;28.43;16.10;;;9.00;99.90;;;;;;5019316;28;20210;-77
2021/12/18 07:11:24;;;;;;;27.03;15.53;;;8.90;99.90;;;;;;5023231;28;20219;-77
2021/12/18 07:13:52;;;;;;;28.60;14.83;;;8.90;99.90;;;;;;5021693;28;20577;-77
2021/12/18 07:16:19;;;;;;;26.20;15.47;;;9.00;99.90;;;;;;5024880;28;20557;-77
2021/12/18 07:18:46;;;;;;;26.23;15.10;;;8.90;99.90;;;;;;5023170;28;20198;-77
2021/12/18 07:21:14;;;;;;;26.13;15.87;;;8.90;99.90;;;;;;5030832;28;20242;-77
2021/12/18 07:23:42;;;;;;;29.13;15.63;;;9.00;99.90;;;;;;5024812;28;20557;-77
2021/12/18 07:26:12;;;;;;;26.27;14.87;;;9.00;99.90;;;;;;5014823;28;20218;-77
2021/12/18 07:28:39;;;;;;;26.50;14.57;;;9.10;99.90;;;;;;5024830;28;20228;-77
2021/12/18 07:31:07;;;;;;;20.90;13.47;;;9.10;99.90;;;;;;5019707;28;20215;-78
2021/12/18 07:33:37;;;;;;;17.30;10.07;;;9.10;99.90;;;;;;5029415;28;20226;-74
2021/12/18 07:36:06;;;;;;;14.13;8.40;;;9.10;99.90;;;;;;5024504;28;20199;-75
2021/12/18 07:38:33;;;;;;;9.20;5.77;;;9.10;99.90;;;;;;5022927;28;20192;-74
2021/12/18 07:41:02;;;;;;;9.90;6.47;;;9.10;99.90;;;;;;5016147;28;20206;-74
2021/12/18 07:43:30;;;;;;;10.77;6.83;;;9.20;99.90;;;;;;5017323;28;20204;-75
2021/12/18 07:45:57;;;;;;;13.60;7.97;;;9.10;99.90;;;;;;5020124;28;20207;-75
2021/12/18 07:48:24;;;;;;;13.77;8.03;;;9.20;99.90;;;;;;5020648;28;20212;-75
2021/12/18 07:50:52;;;;;;;11.60;7.20;;;9.30;99.90;;;;;;5022532;28;20199;-75
2021/12/18 07:53:19;;;;;;;10.40;7.20;;;9.20;99.90;;;;;;5018838;28;20246;-75
2021/12/18 07:55:49;;;;;;;11.07;7.40;;;9.40;99.90;;;;;;5026936;28;20207;-76
2021/12/18 07:58:18;;;;;;;6.40;4.20;;;9.40;99.90;;;;;;5028963;28;20211;-76
2021/12/18 08:00:45;;;;;;;7.53;5.37;;;10.50;99.90;;;;;;5018096;28;20195;-75
2021/12/18 08:03:13;;;;;;;9.30;6.43;;;11.10;99.90;;;;;;5022858;28;20203;-76
2021/12/18 08:05:40;;;;;;;9.40;6.60;;;11.10;99.90;;;;;;5024589;28;20191;-75
2021/12/18 08:08:08;;;;;;;8.03;5.90;;;11.10;99.90;;;;;;5020167;28;20202;-75
2021/12/18 08:10:35;;;;;;;10.10;6.80;;;10.40;99.90;;;;;;5018739;28;20203;-75
2021/12/18 08:13:02;;;;;;;10.17;6.73;;;9.80;99.90;;;;;;5033273;28;20222;-75
2021/12/18 08:15:31;;;;;;;8.50;6.40;;;9.60;99.90;;;;;;5013702;28;20223;-75
2021/12/18 08:18:03;;;;;;;8.43;5.90;;;9.50;99.90;;;;;;5000286;28;20203;-75
2021/12/18 08:20:34;;;;;;;13.93;9.07;;;9.60;99.90;;;;;;5001718;28;20207;-75
2021/12/18 08:23:05;;;;;;;9.83;6.83;;;9.50;99.90;;;;;;5005973;28;20567;-75
2021/12/18 08:25:37;;;;;;;9.87;6.40;;;9.50;99.90;;;;;;5008020;28;20199;-75
2021/12/18 08:28:06;;;;;;;10.17;6.50;;;9.50;99.90;;;;;;4996540;28;20199;-75
2021/12/18 08:30:38;;;;;;;8.47;5.90;;;9.50;99.90;;;;;;4998928;28;20211;-75
2021/12/18 08:33:29;;;;;;;12.67;7.03;;;9.40;99.90;;;;;;5007602;28;20216;-75
2021/12/18 08:35:56;;;;;;;10.50;6.53;;;9.50;99.90;;;;;;5002277;28;20211;-75
2021/12/18 08:38:30;;;;;;;11.00;7.50;;;9.60;99.90;;;;;;5011240;28;20196;-76
2021/12/18 08:40:57;;;;;;;11.37;7.47;;;9.60;99.90;;;;;;5001441;28;20200;-75
2021/12/18 08:43:29;;;;;;;12.40;7.57;;;9.40;99.90;;;;;;4995043;28;20207;-75
2021/12/18 08:45:57;;;;;;;13.87;8.67;;;9.50;99.90;;;;;;5010435;28;20199;-77
2021/12/18 08:48:25;;;;;;;13.43;8.23;;;9.60;99.90;;;;;;5003704;28;20207;-76
2021/12/18 08:50:52;;;;;;;12.53;8.30;;;9.50;99.90;;;;;;5008311;28;20199;-76
2021/12/18 08:53:19;;;;;;;13.80;8.87;;;9.50;99.90;;;;;;5003952;28;20577;-76
2021/12/18 08:55:47;;;;;;;16.33;9.00;;;9.40;99.90;;;;;;5008259;28;20204;-80
2021/12/18 08:58:14;;;;;;;12.97;8.23;;;9.60;99.90;;;;;;5005244;28;20205;-76
2021/12/18 09:00:42;;;;;;;11.53;7.20;;;9.60;99.90;;;;;;4999953;28;20208;-76
2021/12/18 09:03:10;;;;;;;13.87;8.77;;;9.60;99.90;;;;;;5010086;28;20202;-75
2021/12/18 09:05:38;;;;;;;13.93;8.50;;;9.60;99.90;;;;;;5005364;28;20207;-76
2021/12/18 09:08:06;;;;;;;12.67;7.27;;;9.60;99.90;;;;;;5008687;28;20701;-76
2021/12/18 09:10:33;;;;;;;13.07;7.23;;;9.50;99.90;;;;;;5005685;28;20508;-76
2021/12/18 09:13:00;;;;;;;12.47;7.47;;;9.60;99.90;;;;;;5010670;28;20222;-77
2021/12/18 09:15:28;;;;;;;11.77;7.70;;;9.60;99.90;;;;;;4999992;28;20208;-77
2021/12/18 09:17:56;;;;;;;11.47;7.33;;;9.60;99.90;;;;;;5003765;28;20203;-77
2021/12/18 09:20:24;;;;;;;11.00;6.70;;;9.60;99.90;;;;;;5006839;28;20208;-77
2021/12/18 09:22:52;;;;;;;10.10;6.57;;;9.70;99.90;;;;;;5022335;28;20212;-77
2021/12/18 09:25:19;;;;;;;9.97;6.47;;;9.70;99.90;;;;;;5001289;28;20207;-78
2021/12/18 09:27:47;;;;;;;11.87;6.80;;;9.70;99.90;;;;;;5005412;28;20574;-78
2021/12/18 09:30:15;;;;;;;8.53;5.77;;;10.00;99.90;;;;;;5010179;28;20200;-78
2021/12/18 09:32:44;;;;;;;9.87;5.63;;;9.90;99.90;;;;;;5005826;28;20228;-78
2021/12/18 09:35:12;;;;;;;7.83;5.57;;;9.70;99.90;;;;;;5007353;28;20220;-78
2021/12/18 09:37:41;;;;;;;7.83;4.80;;;9.70;99.90;;;;;;5002649;28;20655;-80
2021/12/18 09:40:10;;;;;;;6.63;4.90;;;9.40;99.90;;;;;;5004737;28;20196;-81
2021/12/18 09:42:38;;;;;;;5.67;4.10;;;9.40;99.90;;;;;;5007918;28;20228;-76
2021/12/18 09:45:07;;;;;;;6.90;5.07;;;9.40;99.90;;;;;;5006647;28;20185;-80
2021/12/18 09:47:52;;;;;;;8.23;4.50;;;9.40;99.90;;;;;;5013841;28;20196;-76
2021/12/18 09:50:24;;;;;;;5.87;3.93;;;9.50;99.90;;;;;;5007277;28;20204;-76
2021/12/18 09:52:53;;;;;;;6.13;4.60;;;9.50;99.90;;;;;;5006182;28;20224;-77
2021/12/18 09:55:24;;;;;;;6.53;3.93;;;9.60;99.90;;;;;;5001385;28;20219;-79
2021/12/18 09:57:51;;;;;;;6.50;3.90;;;9.60;99.90;;;;;;5004893;28;20593;-77
2021/12/18 10:00:21;;;;;;;6.07;4.03;;;9.50;99.90;;;;;;5003843;28;20262;-78
2021/12/18 10:02:49;;;;;;;6.67;4.47;;;9.50;99.90;;;;;;5011362;28;20235;-78
2021/12/18 10:05:25;;;;;;;6.33;3.90;;;9.30;99.90;;;;;;5000463;28;20199;-77
2021/12/18 10:08:16;;;;;;;6.63;4.37;;;9.40;99.90;;;;;;5008306;28;20200;-77
2021/12/18 10:11:03;;;;;;;7.37;4.40;;;9.50;99.90;;;;;;5007375;28;20207;-77
2021/12/18 10:13:32;;;;;;;8.00;4.87;;;9.50;99.90;;;;;;5005845;28;20203;-77
2021/12/18 10:16:09;;;;;;;8.63;5.40;;;9.40;99.90;;;;;;4994273;28;20705;-77
2021/12/18 10:18:37;;;;;;;7.53;4.40;;;9.40;99.90;;;;;;5006141;28;20192;-77
2021/12/18 10:21:10;;;;;;;6.43;4.20;;;9.40;99.90;;;;;;4996710;28;20219;-76
2021/12/18 10:23:46;;;;;;;7.50;4.87;;;9.40;99.90;;;;;;5006556;28;20193;-77
2021/12/18 10:26:35;;;;;;;9.37;5.20;;;9.40;99.90;;;;;;5003252;28;20200;-76
2021/12/18 10:29:06;;;;;;;10.33;5.10;;;9.50;99.90;;;;;;5012221;28;20206;-76
2021/12/18 10:31:51;;;;;;;9.67;5.50;;;9.50;99.90;;;;;;5006058;28;20216;-76
2021/12/18 10:34:20;;;;;;;8.37;5.90;;;9.60;99.90;;;;;;4993013;28;20212;-76
2021/12/18 10:37:17;;;;;;;9.13;5.73;;;9.50;99.90;;;;;;5009777;28;20218;-77
2021/12/18 10:39:56;;;;;;;8.60;5.33;;;9.50;99.90;;;;;;4993007;28;20205;-76
2021/12/18 10:42:40;;;;;;;10.33;5.70;;;9.50;99.90;;;;;;4992320;28;20220;-76
2021/12/18 10:45:13;;;;;;;9.83;5.67;;;9.50;99.90;;;;;;5009052;28;20196;-77
2021/12/18 10:47:53;;;;;;;10.90;6.40;;;9.50;99.90;;;;;;4993590;28;20196;-76
2021/12/18 10:50:24;;;;;;;8.50;5.73;;;9.40;99.90;;;;;;5008537;28;20219;-77
2021/12/18 10:52:57;;;;;;;10.57;5.70;;;9.40;99.90;;;;;;4993126;28;20231;-76
2021/12/18 10:55:32;;;;;;;9.60;6.33;;;9.50;99.90;;;;;;5015123;28;20212;-76
2021/12/18 10:58:01;;;;;;;12.03;6.03;;;9.40;99.90;;;;;;4993343;28;20218;-76
2021/12/18 11:00:44;;;;;;;10.73;5.90;;;9.40;99.90;;;;;;4994705;28;20204;-77
2021/12/18 11:03:31;;;;;;;8.57;4.97;;;9.50;99.90;;;;;;5004994;28;20188;-77
2021/12/18 11:06:13;;;;;;;9.70;5.40;;;9.40;99.90;;;;;;5004234;28;20192;-76
2021/12/18 11:08:53;;;;;;;10.77;6.10;;;9.30;99.90;;;;;;5023157;28;20207;-76
2021/12/18 11:14:15;;;;;;;13.33;7.80;;;9.20;99.90;;;;;;5008447;28;20196;-76
2021/12/18 11:16:44;;;;;;;10.43;6.60;;;9.20;99.90;;;;;;5004424;28;20216;-77
2021/12/18 11:19:16;;;;;;;12.80;7.30;;;9.10;99.90;;;;;;4992998;28;20200;-76
2021/12/18 11:21:46;;;;;;;14.57;7.10;;;9.10;99.90;;;;;;5008427;28;20212;-77
2021/12/18 11:24:41;;;;;;;13.87;7.63;;;9.10;99.90;;;;;;4999693;28;20656;-76
2021/12/18 11:27:18;;;;;;;10.57;5.83;;;9.20;99.90;;;;;;4999169;28;20196;-76
2021/12/18 11:29:51;;;;;;;9.33;5.60;;;9.10;99.90;;;;;;5001958;28;20553;-78
2021/12/18 11:32:21;;;;;;;10.47;6.13;;;9.10;99.90;;;;;;5001313;28;20227;-77
2021/12/18 11:34:50;;;;;;;10.53;6.10;;;9.10;99.90;;;;;;5001026;28;20207;-78
2021/12/18 11:37:40;;;;;;;9.57;6.10;;;9.10;99.90;;;;;;4995906;28;20238;-77
2021/12/18 11:40:11;;;;;;;9.93;5.50;;;9.10;99.90;;;;;;4996692;28;20205;-77
2021/12/18 11:42:46;;;;;;;7.43;5.10;;;9.10;99.90;;;;;;4995677;28;20682;-77
2021/12/18 11:45:15;;;;;;;7.13;4.67;;;9.00;99.90;;;;;;5006839;28;20210;-77
2021/12/18 11:48:00;;;;;;;6.03;4.63;;;8.90;99.90;;;;;;5005434;28;20196;-78
2021/12/18 11:50:31;;;;;;;6.10;4.50;;;9.00;99.90;;;;;;5003486;28;20192;-78
2021/12/18 11:53:02;;;;;;;6.50;5.17;;;8.90;99.90;;;;;;4999664;28;20705;-78
2021/12/18 11:55:32;;;;;;;8.33;5.90;;;8.90;99.90;;;;;;5009052;28;20216;-77
2021/12/18 11:58:02;;;;;;;9.40;5.67;;;8.80;99.90;;;;;;5007663;28;20199;-78
2021/12/18 12:01:21;;;;;;;7.00;5.23;;;8.80;99.90;;;;;;5004375;28;20702;-77
2021/12/18 12:03:57;;;;;;;8.47;5.63;;;8.80;99.90;;;;;;5013340;28;20218;-77
2021/12/18 12:06:30;;;;;;;10.60;5.77;;;8.80;99.90;;;;;;5015196;28;20221;-77
2021/12/18 12:09:25;;;;;;;9.60;6.40;;;8.80;99.90;;;;;;5011925;28;20564;-77
2021/12/18 12:11:57;;;;;;;8.40;6.33;;;8.80;99.90;;;;;;5031629;28;20219;-77
2021/12/18 12:14:28;;;;;;;9.40;6.33;;;8.90;99.90;;;;;;5015235;28;20199;-77
2021/12/18 12:17:08;;;;;;;8.63;6.00;;;8.90;99.90;;;;;;5014720;28;20211;-77
2021/12/18 12:19:48;;;;;;;9.80;7.10;;;9.00;99.90;;;;;;5007574;28;20202;-78
2021/12/18 12:22:41;;;;;;;9.87;6.37;;;9.00;99.90;;;;;;5013394;28;20747;-77
2021/12/18 12:25:16;;;;;;;8.70;5.87;;;8.90;99.90;;;;;;5025326;28;20207;-77
2021/12/18 12:27:46;;;;;;;10.53;6.33;;;8.90;99.90;;;;;;5000316;28;20204;-78
2021/12/18 12:30:33;;;;;;;10.63;6.30;;;8.90;99.90;;;;;;5008629;28;20207;-77
2021/12/18 12:33:23;;;;;;;10.00;6.17;;;8.90;99.90;;;;;;5018256;28;20235;-77
2021/12/18 12:36:10;;;;;;;8.73;6.27;;;8.90;99.90;;;;;;5009951;28;20231;-77
2021/12/18 12:38:40;;;;;;;8.17;5.47;;;8.80;99.90;;;;;;5004578;28;20204;-77
2021/12/18 12:41:35;;;;;;;8.07;5.47;;;8.90;99.90;;;;;;4998346;28;20208;-77
2021/12/18 12:47:36;;;;;;;6.47;5.10;;;8.60;99.90;;;;;;5016378;28;20196;-76
2021/12/18 12:50:29;;;;;;;6.43;4.50;;;8.60;99.90;;;;;;4994495;28;20200;-76
2021/12/18 12:52:58;;;;;;;6.97;4.97;;;8.60;99.90;;;;;;5024646;28;20586;-77
2021/12/18 12:55:27;;;;;;;6.10;4.67;;;8.50;99.90;;;;;;5003711;28;20204;-78
2021/12/18 12:57:58;;;;;;;6.27;4.80;;;8.60;99.90;;;;;;5006171;28;20307;-76
2021/12/18 13:00:47;;;;;;;6.37;5.00;;;8.60;99.90;;;;;;5007206;28;20200;-78
2021/12/18 13:03:31;;;;;;;7.10;5.07;;;8.60;99.90;;;;;;5024093;28;20199;-77
2021/12/18 13:06:16;;;;;;;8.93;5.97;;;8.50;99.90;;;;;;5013716;28;20199;-77
2021/12/18 13:08:46;;;;;;;8.23;5.47;;;8.60;99.90;;;;;;5014236;28;20200;-77
2021/12/18 13:11:19;;;;;;;7.53;5.53;;;8.60;99.90;;;;;;5015475;28;20215;-77
2021/12/18 13:13:46;;;;;;;7.43;5.27;;;8.60;99.90;;;;;;5015887;28;20180;-77
2021/12/18 13:16:16;;;;;;;6.53;5.03;;;8.70;99.90;;;;;;5013947;28;20203;-77
2021/12/18 13:18:53;;;;;;;9.63;6.57;;;8.60;99.90;;;;;;5008388;28;20199;-77
2021/12/18 13:21:23;;;;;;;6.07;4.30;;;8.60;99.90;;;;;;5004805;28;20223;-77
2021/12/18 13:23:57;;;;;;;7.03;4.60;;;8.50;99.90;;;;;;5029516;28;20650;-77
2021/12/18 13:26:31;;;;;;;6.37;5.03;;;8.60;99.90;;;;;;5001325;28;20199;-76
2021/12/18 13:29:02;;;;;;;6.33;4.60;;;8.70;99.90;;;;;;5013251;28;20207;-77
2021/12/18 13:31:54;;;;;;;6.33;4.70;;;8.70;99.90;;;;;;5007525;28;20216;-77
2021/12/18 13:34:26;;;;;;;7.20;4.43;;;8.70;99.90;;;;;;5006731;28;20204;-77
2021/12/18 13:36:55;;;;;;;5.73;4.37;;;8.70;99.90;;;;;;4997159;28;20247;-77
2021/12/18 13:39:44;;;;;;;6.00;4.70;;;8.50;99.90;;;;;;5008191;28;20208;-77
2021/12/18 13:42:13;;;;;;;5.00;4.20;;;8.60;99.90;;;;;;5006222;28;20226;-77
2021/12/18 13:44:43;;;;;;;6.30;4.60;;;8.60;99.90;;;;;;5006807;28;20200;-77